Time;durP1;ratioP1;P1;durP2;ratioP2;P2;SDS_P1;SDS_P2;PMS_P1;PMS_P2;Temp;Humidity;BMP_temperature;BMP_pressure;BME280_temperature;BME280_humidity;BME280_pressure;Samples;Min_cycle;Max_cycle;Signal;HPM_P1;HPM_P2
2024/01/27 00:00:08;;;;;;;1.40;0.75;;;1.00;99.90;;;;;;5025017;28;20420;-72
2024/01/27 00:02:33;;;;;;;0.60;0.60;;;1.00;99.90;;;;;;5040024;28;20106;-71
2024/01/27 00:04:59;;;;;;;6.10;1.20;;;1.10;99.90;;;;;;5025258;28;20040;-72
2024/01/27 00:07:27;;;;;;;5.10;1.13;;;1.00;99.90;;;;;;5036381;28;20037;-72
2024/01/27 00:09:52;;;;;;;1.33;0.80;;;1.00;99.90;;;;;;5035814;28;20052;-73
2024/01/27 00:12:18;;;;;;;3.25;0.93;;;0.90;99.90;;;;;;5045380;28;20439;-73
2024/01/27 00:14:44;;;;;;;1.38;1.27;;;0.80;99.90;;;;;;5027557;28;20039;-73
2024/01/27 00:17:10;;;;;;;2.05;1.70;;;0.80;99.90;;;;;;5043799;28;20032;-73
2024/01/27 00:19:35;;;;;;;3.35;2.60;;;0.90;99.90;;;;;;5028182;28;20029;-72
2024/01/27 00:22:02;;;;;;;0.82;0.57;;;1.00;99.90;;;;;;5042191;28;20553;-73
2024/01/27 00:24:27;;;;;;;3.97;1.77;;;1.00;99.90;;;;;;5029195;28;20373;-73
2024/01/27 00:26:53;;;;;;;6.88;1.58;;;1.00;99.90;;;;;;5036370;28;20181;-73
2024/01/27 00:29:19;;;;;;;11.65;2.53;;;0.90;99.90;;;;;;5042595;28;20076;-72
2024/01/27 00:31:45;;;;;;;7.65;1.58;;;1.20;99.90;;;;;;5030173;28;21164;-73
2024/01/27 00:34:10;;;;;;;5.88;1.77;;;1.30;99.90;;;;;;5037716;28;20622;-73
2024/01/27 00:36:37;;;;;;;2.08;1.30;;;1.30;99.90;;;;;;5024668;28;20512;-72
2024/01/27 00:39:03;;;;;;;2.88;1.70;;;1.40;99.90;;;;;;5039699;28;20041;-72
2024/01/27 00:41:29;;;;;;;5.30;2.20;;;1.30;99.90;;;;;;5026455;28;20499;-72
2024/01/27 00:43:55;;;;;;;3.70;2.13;;;1.20;99.90;;;;;;5043330;28;20044;-73
2024/01/27 00:46:21;;;;;;;5.03;1.85;;;1.20;99.90;;;;;;5032547;28;20055;-73
2024/01/27 00:48:46;;;;;;;2.30;2.20;;;1.20;99.90;;;;;;5070670;28;20068;-73
2024/01/27 00:51:12;;;;;;;5.32;1.48;;;1.20;99.90;;;;;;5055630;28;20043;-72
2024/01/27 00:53:38;;;;;;;1.13;1.08;;;1.10;99.90;;;;;;5062919;28;20028;-72
2024/01/27 00:56:05;;;;;;;10.27;3.38;;;1.10;99.90;;;;;;5051735;28;20029;-71
2024/01/27 00:58:31;;;;;;;4.60;1.48;;;1.10;99.90;;;;;;5067880;28;20053;-73
2024/01/27 01:00:57;;;;;;;2.35;1.45;;;1.10;99.90;;;;;;5043446;28;20053;-72
2024/01/27 01:03:22;;;;;;;1.85;1.10;;;1.10;99.90;;;;;;5064308;28;20049;-72
2024/01/27 01:05:48;;;;;;;1.85;0.60;;;1.00;99.90;;;;;;5053371;28;20106;-72
2024/01/27 01:08:13;;;;;;;3.95;1.90;;;0.90;99.90;;;;;;5061359;28;20036;-73
2024/01/27 01:10:39;;;;;;;1.58;1.02;;;0.90;99.90;;;;;;5069136;28;20488;-74
2024/01/27 01:13:05;;;;;;;10.35;1.80;;;0.90;99.90;;;;;;5053270;28;20024;-72
2024/01/27 01:15:31;;;;;;;1.45;0.73;;;0.80;99.90;;;;;;5066931;28;20033;-72
2024/01/27 01:17:57;;;;;;;3.85;1.30;;;0.80;99.90;;;;;;5056130;28;20419;-71
2024/01/27 01:20:24;;;;;;;2.03;0.70;;;0.80;99.90;;;;;;5062224;28;20102;-72
2024/01/27 01:22:49;;;;;;;4.70;1.48;;;0.90;99.90;;;;;;5048529;28;20409;-73
2024/01/27 01:25:15;;;;;;;3.60;0.73;;;1.00;99.90;;;;;;5059266;28;20059;-72
2024/01/27 01:27:41;;;;;;;0.95;0.85;;;1.10;99.90;;;;;;5044986;28;20024;-71
2024/01/27 01:30:07;;;;;;;0.82;0.60;;;1.10;99.90;;;;;;5065459;28;20036;-71
2024/01/27 01:32:33;;;;;;;1.58;0.75;;;1.10;99.90;;;;;;5050018;28;20122;-75
2024/01/27 01:34:58;;;;;;;3.72;1.88;;;1.00;99.90;;;;;;5063661;28;20089;-72
2024/01/27 01:37:24;;;;;;;0.98;0.82;;;0.80;99.90;;;;;;5050985;28;20036;-73
2024/01/27 01:39:50;;;;;;;6.03;0.80;;;0.70;99.90;;;;;;5058452;28;20033;-73
2024/01/27 01:42:15;;;;;;;0.80;0.80;;;0.70;99.90;;;;;;5048960;28;20466;-73
2024/01/27 01:44:41;;;;;;;6.47;2.08;;;1.00;99.90;;;;;;5064653;28;20495;-72
2024/01/27 01:47:08;;;;;;;1.42;1.23;;;1.10;99.90;;;;;;5054381;28;20186;-71
2024/01/27 01:49:34;;;;;;;8.88;1.70;;;1.20;99.90;;;;;;5065114;28;20027;-72
2024/01/27 01:52:00;;;;;;;0.70;0.55;;;1.20;99.90;;;;;;5065415;28;20077;-72
2024/01/27 01:54:27;;;;;;;6.05;1.05;;;1.20;99.90;;;;;;5044166;28;20059;-72
2024/01/27 01:56:55;;;;;;;1.83;1.70;;;1.20;99.90;;;;;;5060441;28;20028;-72
2024/01/27 01:59:21;;;;;;;4.30;2.88;;;1.10;99.90;;;;;;5049949;28;20031;-73
2024/01/27 02:01:46;;;;;;;1.48;0.63;;;1.10;99.90;;;;;;5056230;28;20055;-72
2024/01/27 02:04:12;;;;;;;6.65;1.80;;;1.10;99.90;;;;;;5053010;28;20067;-71
2024/01/27 02:06:37;;;;;;;1.80;1.42;;;1.10;99.90;;;;;;5061861;28;20041;-73
2024/01/27 02:09:05;;;;;;;1.80;1.63;;;1.10;99.90;;;;;;5046484;28;20165;-73
2024/01/27 02:11:30;;;;;;;8.40;1.58;;;1.10;99.90;;;;;;5064520;28;20036;-72
2024/01/27 02:13:56;;;;;;;1.38;0.98;;;1.10;99.90;;;;;;5047376;28;20028;-72
2024/01/27 02:16:22;;;;;;;0.80;0.63;;;1.10;99.90;;;;;;5065464;28;20031;-73
2024/01/27 02:18:47;;;;;;;3.25;1.42;;;1.10;99.90;;;;;;5056343;28;20420;-73
2024/01/27 02:21:13;;;;;;;0.70;0.70;;;1.10;99.90;;;;;;5060249;28;20526;-71
2024/01/27 02:23:39;;;;;;;2.92;1.55;;;0.90;99.90;;;;;;5047849;28;20520;-71
2024/01/27 02:26:05;;;;;;;1.50;1.13;;;0.70;99.90;;;;;;5065071;28;20071;-73
2024/01/27 02:28:33;;;;;;;14.77;1.55;;;0.70;99.90;;;;;;5048964;28;20070;-72
2024/01/27 02:30:59;;;;;;;0.82;0.57;;;0.80;99.90;;;;;;5063423;28;20577;-72
2024/01/27 02:33:25;;;;;;;0.75;0.57;;;0.80;99.90;;;;;;5062878;28;20036;-74
2024/01/27 02:35:51;;;;;;;1.17;0.90;;;0.90;99.90;;;;;;5051801;28;20035;-72
2024/01/27 02:38:17;;;;;;;15.25;1.33;;;0.90;99.90;;;;;;5060789;28;20450;-72
2024/01/27 02:40:42;;;;;;;2.65;2.40;;;0.80;99.90;;;;;;5046671;28;20092;-73
2024/01/27 02:43:08;;;;;;;2.63;1.83;;;0.70;99.90;;;;;;5064457;28;20024;-72
2024/01/27 02:45:34;;;;;;;1.05;0.98;;;0.80;99.90;;;;;;5054609;28;20036;-72
2024/01/27 02:47:59;;;;;;;3.50;1.83;;;0.80;99.90;;;;;;5059428;28;20455;-72
2024/01/27 02:50:25;;;;;;;1.38;1.15;;;0.90;99.90;;;;;;5051334;28;20040;-73
2024/01/27 02:52:51;;;;;;;1.35;1.25;;;0.90;99.90;;;;;;5065390;28;20064;-72
2024/01/27 02:55:16;;;;;;;4.85;2.47;;;1.00;99.90;;;;;;5047465;28;20427;-73
2024/01/27 02:57:42;;;;;;;1.10;1.02;;;0.90;99.90;;;;;;5063945;28;20128;-71
2024/01/27 03:00:08;;;;;;;1.42;1.27;;;0.90;99.90;;;;;;5047130;28;20272;-72
2024/01/27 03:02:34;;;;;;;2.13;1.60;;;0.90;99.90;;;;;;5059015;28;20031;-72
2024/01/27 03:05:00;;;;;;;2.95;1.60;;;0.90;99.90;;;;;;5050282;28;20036;-72
2024/01/27 03:07:26;;;;;;;1.65;1.55;;;0.90;99.90;;;;;;5054516;28;20044;-73
2024/01/27 03:09:51;;;;;;;13.52;3.03;;;0.90;99.90;;;;;;5057086;28;20064;-72
2024/01/27 03:12:18;;;;;;;0.85;0.82;;;0.60;99.90;;;;;;5065161;28;20040;-73
2024/01/27 03:14:44;;;;;;;3.78;1.55;;;0.50;99.90;;;;;;5059699;28;20166;-73
2024/01/27 03:17:10;;;;;;;3.65;2.28;;;0.60;99.90;;;;;;5050255;28;20036;-73
2024/01/27 03:19:35;;;;;;;25.23;1.75;;;0.70;99.90;;;;;;5067715;28;20551;-72
2024/01/27 03:22:01;;;;;;;5.47;1.92;;;0.70;99.90;;;;;;5028453;28;20051;-72
2024/01/27 03:24:27;;;;;;;0.63;0.63;;;0.70;99.90;;;;;;5063349;28;20485;-72
2024/01/27 03:26:53;;;;;;;2.20;1.08;;;0.70;99.90;;;;;;5044059;28;20031;-73
2024/01/27 03:29:18;;;;;;;3.13;0.82;;;0.60;99.90;;;;;;5059648;28;20047;-74
2024/01/27 03:31:44;;;;;;;1.42;1.20;;;0.60;99.90;;;;;;5048908;28;20043;-72
2024/01/27 03:34:10;;;;;;;1.35;0.93;;;0.60;99.90;;;;;;5060126;28;20079;-73
2024/01/27 03:36:35;;;;;;;3.05;1.25;;;0.60;99.90;;;;;;5047660;28;20444;-75
2024/01/27 03:39:01;;;;;;;0.55;0.55;;;0.60;99.90;;;;;;5061551;28;20024;-73
2024/01/27 03:41:27;;;;;;;1.85;1.38;;;0.60;99.90;;;;;;5044622;28;20031;-73
2024/01/27 03:43:52;;;;;;;0.43;0.43;;;0.50;99.90;;;;;;5066887;28;20032;-72
2024/01/27 03:46:18;;;;;;;1.45;0.73;;;0.50;99.90;;;;;;5053163;28;20127;-72
2024/01/27 03:48:44;;;;;;;0.55;0.55;;;0.50;99.90;;;;;;5066170;28;20042;-74
2024/01/27 03:51:10;;;;;;;0.75;0.17;;;0.50;99.90;;;;;;5067729;28;20025;-73
2024/01/27 03:53:36;;;;;;;9.40;0.63;;;0.50;99.90;;;;;;5055771;28;20037;-71
2024/01/27 03:56:04;;;;;;;5.78;0.55;;;0.50;99.90;;;;;;5066074;28;20036;-73
2024/01/27 03:58:30;;;;;;;3.85;1.13;;;0.50;99.90;;;;;;5055994;28;20029;-73
2024/01/27 04:00:56;;;;;;;0.55;0.55;;;0.50;99.90;;;;;;5060398;28;20043;-72
2024/01/27 04:03:22;;;;;;;0.40;0.40;;;0.50;99.90;;;;;;5051835;28;20132;-73
2024/01/27 04:05:48;;;;;;;0.55;0.55;;;0.40;99.90;;;;;;5070834;28;20217;-72
2024/01/27 04:08:13;;;;;;;1.90;1.80;;;0.40;99.90;;;;;;5049401;28;20056;-73
2024/01/27 04:10:39;;;;;;;2.58;1.75;;;0.50;99.90;;;;;;5071847;28;20041;-73
2024/01/27 04:13:05;;;;;;;2.55;2.33;;;0.50;99.90;;;;;;5056582;28;20028;-72
2024/01/27 04:15:38;;;;;;;0.50;0.50;;;0.40;99.90;;;;;;5065084;28;20745;-73
2024/01/27 04:18:08;;;;;;;0.50;0.50;;;0.40;99.90;;;;;;5056784;28;20110;-72
2024/01/27 04:20:34;;;;;;;4.40;0.95;;;0.40;99.90;;;;;;5066088;28;20396;-71
2024/01/27 04:23:00;;;;;;;1.67;0.50;;;0.40;99.90;;;;;;5052088;28;20044;-72
2024/01/27 04:25:26;;;;;;;0.40;0.40;;;0.40;99.90;;;;;;5048635;28;20036;-73
2024/01/27 04:27:51;;;;;;;0.30;0.30;;;0.20;99.90;;;;;;5051089;28;20124;-71
2024/01/27 04:30:17;;;;;;;2.45;1.08;;;0.20;99.90;;;;;;5067361;28;20040;-72
2024/01/27 04:32:43;;;;;;;0.40;0.40;;;0.30;99.90;;;;;;5051592;28;20514;-73
2024/01/27 04:35:10;;;;;;;1.35;0.55;;;0.40;99.90;;;;;;5062882;28;20535;-73
2024/01/27 04:37:35;;;;;;;0.30;0.30;;;0.40;99.90;;;;;;5063155;28;20048;-72
2024/01/27 04:40:01;;;;;;;6.00;1.77;;;0.40;99.90;;;;;;5050217;28;20155;-72
2024/01/27 04:42:27;;;;;;;1.38;0.80;;;0.30;99.90;;;;;;5065599;28;20052;-74
2024/01/27 04:44:53;;;;;;;5.13;0.75;;;0.30;99.90;;;;;;5059252;28;20028;-73
2024/01/27 04:47:18;;;;;;;1.63;1.10;;;0.40;99.90;;;;;;5067166;28;20424;-72
2024/01/27 04:49:44;;;;;;;0.30;0.30;;;0.40;99.90;;;;;;5053237;28;20491;-72
2024/01/27 04:52:09;;;;;;;2.08;1.10;;;0.30;99.90;;;;;;5068083;28;20027;-71
2024/01/27 04:54:36;;;;;;;0.73;0.70;;;0.30;99.90;;;;;;5048934;28;20024;-72
2024/01/27 04:57:01;;;;;;;2.72;0.98;;;0.40;99.90;;;;;;5068435;28;20016;-72
2024/01/27 04:59:27;;;;;;;0.70;0.70;;;0.30;99.90;;;;;;5055859;28;20035;-72
2024/01/27 05:01:53;;;;;;;0.20;0.20;;;0.50;99.90;;;;;;5061999;28;20032;-71
2024/01/27 05:04:18;;;;;;;0.40;0.40;;;0.40;99.90;;;;;;5052509;28;20040;-73
2024/01/27 05:06:46;;;;;;;6.65;0.63;;;0.30;99.90;;;;;;5069244;28;20020;-72
2024/01/27 05:09:12;;;;;;;1.25;1.17;;;0.20;99.90;;;;;;5046757;28;20039;-72
2024/01/27 05:11:38;;;;;;;2.60;1.30;;;0.20;99.90;;;;;;5063273;28;20462;-71
2024/01/27 05:14:04;;;;;;;3.17;0.68;;;0.20;99.90;;;;;;5052168;28;20032;-71
2024/01/27 05:16:30;;;;;;;0.20;0.20;;;0.10;99.90;;;;;;5062307;28;20039;-72
2024/01/27 05:18:55;;;;;;;1.80;0.50;;;0.20;99.90;;;;;;5065707;28;20028;-72
2024/01/27 05:21:22;;;;;;;2.85;0.73;;;0.10;99.90;;;;;;5051742;28;20529;-74
2024/01/27 05:23:47;;;;;;;1.10;0.45;;;0.10;99.90;;;;;;5066361;28;20037;-73
2024/01/27 05:26:13;;;;;;;1.65;1.55;;;0.10;99.90;;;;;;5054380;28;20036;-73
2024/01/27 05:28:39;;;;;;;5.72;0.55;;;0.10;99.90;;;;;;5060082;28;20220;-72
2024/01/27 05:31:08;;;;;;;6.03;1.40;;;0.10;99.90;;;;;;5053343;28;20463;-73
2024/01/27 05:33:39;;;;;;;1.17;0.47;;;0.10;99.90;;;;;;5067382;28;20117;-72
2024/01/27 05:36:05;;;;;;;1.17;1.05;;;0.10;99.90;;;;;;5051165;28;20110;-73
2024/01/27 05:38:31;;;;;;;9.88;1.02;;;0.00;99.90;;;;;;5065750;28;20154;-73
2024/01/27 05:41:01;;;;;;;1.25;0.52;;;0.00;99.90;;;;;;5048302;28;20876;-72
2024/01/27 05:43:26;;;;;;;0.30;0.30;;;0.00;99.90;;;;;;5063216;28;20508;-73
2024/01/27 05:45:52;;;;;;;0.40;0.40;;;0.00;99.90;;;;;;5056482;28;20131;-73
2024/01/27 05:48:18;;;;;;;0.50;0.50;;;0.00;99.90;;;;;;5060559;28;20253;-74
2024/01/27 05:50:43;;;;;;;11.70;1.27;;;-0.10;99.90;;;;;;5049837;28;20046;-72
2024/01/27 05:53:09;;;;;;;1.25;1.15;;;-0.20;99.90;;;;;;5066104;28;20043;-73
2024/01/27 05:55:35;;;;;;;0.40;0.40;;;-0.20;99.90;;;;;;5046697;28;20036;-72
2024/01/27 05:58:01;;;;;;;0.93;0.30;;;0.00;99.90;;;;;;5065244;28;20040;-73
2024/01/27 06:00:27;;;;;;;1.48;0.85;;;0.10;99.90;;;;;;5060263;28;20120;-72
2024/01/27 06:02:52;;;;;;;1.23;1.13;;;0.30;99.90;;;;;;5052045;28;20096;-73
2024/01/27 06:05:19;;;;;;;5.10;0.60;;;0.30;99.90;;;;;;5067381;28;20036;-74
2024/01/27 06:07:46;;;;;;;3.50;0.25;;;0.30;99.90;;;;;;5043669;28;20043;-72
2024/01/27 06:10:12;;;;;;;8.55;0.98;;;0.40;99.90;;;;;;5067606;28;20458;-72
2024/01/27 06:12:38;;;;;;;4.43;0.68;;;0.50;99.90;;;;;;5049213;28;20020;-72
2024/01/27 06:15:05;;;;;;;0.30;0.20;;;0.50;99.90;;;;;;5059700;28;20139;-73
2024/01/27 06:17:31;;;;;;;0.65;0.65;;;0.50;99.90;;;;;;5051726;28;20029;-73
2024/01/27 06:19:57;;;;;;;0.22;0.22;;;0.50;99.90;;;;;;5065940;28;20064;-73
2024/01/27 06:22:22;;;;;;;3.40;0.88;;;0.50;99.90;;;;;;5044021;28;20035;-73
2024/01/27 06:24:48;;;;;;;2.15;0.70;;;0.60;99.90;;;;;;5059935;28;20400;-72
2024/01/27 06:27:13;;;;;;;0.68;0.68;;;0.60;99.90;;;;;;5050338;28;20127;-72
2024/01/27 06:29:40;;;;;;;0.50;0.50;;;0.70;99.90;;;;;;5059747;28;20036;-72
2024/01/27 06:32:06;;;;;;;0.38;0.38;;;0.70;99.90;;;;;;5049796;28;20456;-72
2024/01/27 06:34:33;;;;;;;1.92;0.90;;;0.70;99.90;;;;;;5059639;28;20035;-72
2024/01/27 06:36:58;;;;;;;0.60;0.40;;;0.70;99.90;;;;;;5045179;28;20106;-73
2024/01/27 06:39:24;;;;;;;4.25;0.55;;;0.70;99.90;;;;;;5060053;28;20045;-72
2024/01/27 06:41:50;;;;;;;7.50;1.73;;;0.70;99.90;;;;;;5049192;28;20162;-72
2024/01/27 06:44:15;;;;;;;3.25;1.50;;;0.70;99.90;;;;;;5057432;28;20051;-72
2024/01/27 06:46:41;;;;;;;9.90;1.35;;;0.70;99.90;;;;;;5065617;28;20052;-72
2024/01/27 06:49:06;;;;;;;2.50;0.68;;;0.70;99.90;;;;;;5048979;28;20054;-73
2024/01/27 06:51:32;;;;;;;0.73;0.73;;;0.60;99.90;;;;;;5067900;28;20065;-72
2024/01/27 06:53:58;;;;;;;1.98;0.60;;;0.70;99.90;;;;;;5054733;28;20161;-73
2024/01/27 06:56:23;;;;;;;0.52;0.52;;;0.60;99.90;;;;;;5062504;28;20043;-73
2024/01/27 06:58:49;;;;;;;0.68;0.57;;;0.70;99.90;;;;;;5051872;28;20451;-73
2024/01/27 07:01:14;;;;;;;0.80;0.38;;;0.70;99.90;;;;;;5063434;28;20123;-73
2024/01/27 07:03:40;;;;;;;4.15;0.52;;;0.60;99.90;;;;;;5051620;28;20055;-72
2024/01/27 07:06:06;;;;;;;2.20;0.60;;;0.60;99.90;;;;;;5064637;28;20032;-73
2024/01/27 07:08:32;;;;;;;1.58;1.15;;;0.60;99.90;;;;;;5043602;28;20756;-74
2024/01/27 07:10:58;;;;;;;0.45;0.40;;;0.60;99.90;;;;;;5063686;28;20032;-73
2024/01/27 07:13:24;;;;;;;4.70;0.98;;;0.70;99.90;;;;;;5055615;28;20078;-72
2024/01/27 07:15:49;;;;;;;0.47;0.47;;;0.70;99.90;;;;;;5056835;28;20043;-72
2024/01/27 07:18:17;;;;;;;3.22;1.58;;;0.60;99.90;;;;;;5052896;28;20040;-72
2024/01/27 07:20:43;;;;;;;6.95;0.85;;;0.90;99.90;;;;;;5067129;28;20170;-72
2024/01/27 07:23:08;;;;;;;1.77;0.85;;;1.00;99.90;;;;;;5062152;28;20028;-72
2024/01/27 07:25:34;;;;;;;2.03;1.42;;;1.20;99.90;;;;;;5052817;28;20028;-72
2024/01/27 07:28:00;;;;;;;0.15;0.15;;;1.30;99.90;;;;;;5060283;28;20492;-73
2024/01/27 07:30:25;;;;;;;0.45;0.45;;;1.50;99.90;;;;;;5046843;28;20048;-74
2024/01/27 07:32:51;;;;;;;20.48;0.65;;;1.60;99.90;;;;;;5063863;28;20502;-72
2024/01/27 07:35:17;;;;;;;2.70;1.42;;;1.70;99.90;;;;;;5049904;28;20040;-72
2024/01/27 07:37:43;;;;;;;0.70;0.70;;;1.70;99.90;;;;;;5061598;28;21051;-72
2024/01/27 07:40:09;;;;;;;5.20;1.77;;;1.80;99.90;;;;;;5047917;28;20040;-72
2024/01/27 07:42:35;;;;;;;0.70;0.70;;;1.80;99.90;;;;;;5061475;28;20488;-72
2024/01/27 07:45:01;;;;;;;3.78;0.98;;;1.90;99.90;;;;;;5054804;28;20067;-73
2024/01/27 07:47:44;;;;;;;0.65;0.60;;;1.80;99.90;;;;;;5065632;28;20047;-73
2024/01/27 07:50:10;;;;;;;0.98;0.30;;;1.90;99.90;;;;;;5049154;28;20380;-72
2024/01/27 07:52:36;;;;;;;2.67;1.00;;;2.10;99.90;;;;;;5067683;28;20033;-74
2024/01/27 07:55:02;;;;;;;4.20;1.35;;;2.30;99.90;;;;;;5047622;28;20423;-72
2024/01/27 07:57:28;;;;;;;3.20;1.13;;;2.40;99.90;;;;;;5059230;28;20060;-72
2024/01/27 07:59:53;;;;;;;4.75;0.82;;;2.50;99.90;;;;;;5049090;28;20032;-72
2024/01/27 08:02:19;;;;;;;3.38;1.55;;;2.60;99.90;;;;;;5058240;28;20044;-72
2024/01/27 08:04:45;;;;;;;0.65;0.40;;;2.70;99.90;;;;;;5052263;28;20082;-73
2024/01/27 08:07:10;;;;;;;2.85;1.13;;;2.70;99.90;;;;;;5063819;28;20488;-72
2024/01/27 08:09:37;;;;;;;7.55;2.13;;;2.70;99.90;;;;;;5055168;28;20035;-72
2024/01/27 08:12:03;;;;;;;1.90;0.95;;;2.80;99.90;;;;;;5050115;28;20032;-73
2024/01/27 08:14:29;;;;;;;1.88;1.00;;;2.80;99.90;;;;;;5058487;28;20048;-73
2024/01/27 08:16:56;;;;;;;2.40;1.40;;;2.90;99.90;;;;;;5047369;28;20388;-73
2024/01/27 08:19:23;;;;;;;1.33;0.73;;;2.90;99.90;;;;;;5063272;28;20442;-73
2024/01/27 08:21:49;;;;;;;0.77;0.77;;;3.00;99.90;;;;;;5048541;28;20431;-73
2024/01/27 08:24:14;;;;;;;0.45;0.38;;;3.00;99.90;;;;;;5063881;28;20025;-73
2024/01/27 08:26:42;;;;;;;4.93;2.15;;;3.10;99.90;;;;;;5049831;28;20074;-73
2024/01/27 08:29:08;;;;;;;1.52;1.42;;;3.20;99.90;;;;;;5053558;28;20056;-72
2024/01/27 08:31:33;;;;;;;1.08;0.73;;;3.20;99.90;;;;;;5055103;28;20073;-73
2024/01/27 08:33:59;;;;;;;1.13;0.80;;;3.20;99.90;;;;;;5068204;28;20031;-72
2024/01/27 08:36:25;;;;;;;1.27;1.08;;;3.30;99.90;;;;;;5050532;28;20111;-72
2024/01/27 08:38:50;;;;;;;1.33;1.25;;;3.30;99.90;;;;;;5066395;28;20038;-73
2024/01/27 08:41:16;;;;;;;3.42;1.08;;;3.20;99.90;;;;;;5052238;28;20032;-73
2024/01/27 08:43:42;;;;;;;2.15;1.30;;;3.30;99.90;;;;;;5060002;28;20037;-73
2024/01/27 08:46:11;;;;;;;5.43;1.50;;;3.30;99.90;;;;;;5052578;28;20068;-73
2024/01/27 08:48:36;;;;;;;14.18;1.75;;;3.30;99.90;;;;;;5065677;28;20039;-72
2024/01/27 08:51:02;;;;;;;6.35;1.13;;;3.40;99.90;;;;;;5067168;28;20047;-73
2024/01/27 08:53:28;;;;;;;2.13;1.10;;;3.40;99.90;;;;;;5056970;28;20173;-71
2024/01/27 08:55:54;;;;;;;1.38;1.25;;;3.40;99.90;;;;;;5066032;28;20070;-72
2024/01/27 08:58:19;;;;;;;0.93;0.88;;;3.50;99.90;;;;;;5052812;28;20147;-73
2024/01/27 09:00:45;;;;;;;3.03;0.85;;;3.50;99.90;;;;;;5065446;28;20033;-71
2024/01/27 09:03:12;;;;;;;1.67;0.45;;;3.90;99.90;;;;;;5045051;28;20028;-73
2024/01/27 09:05:38;;;;;;;1.27;0.63;;;4.30;99.90;;;;;;5067370;28;20036;-72
2024/01/27 09:08:04;;;;;;;3.10;1.13;;;5.00;99.90;;;;;;5053289;28;20021;-74
2024/01/27 09:10:30;;;;;;;8.38;1.83;;;5.50;99.90;;;;;;5062416;28;20042;-73
2024/01/27 09:12:55;;;;;;;2.58;0.98;;;5.80;99.90;;;;;;5054518;28;20043;-73
2024/01/27 09:15:21;;;;;;;2.53;1.38;;;6.00;99.90;;;;;;5063979;28;20047;-74
2024/01/27 09:17:48;;;;;;;5.13;1.63;;;6.20;99.90;;;;;;5051051;28;20352;-72
2024/01/27 09:20:14;;;;;;;5.38;2.65;;;6.30;99.90;;;;;;5067408;28;20024;-73
2024/01/27 09:22:41;;;;;;;12.98;1.13;;;6.40;99.90;;;;;;5050908;28;20028;-74
2024/01/27 09:25:08;;;;;;;12.43;1.75;;;6.60;99.90;;;;;;5071134;28;20035;-73
2024/01/27 09:27:34;;;;;;;11.77;2.05;;;6.70;99.90;;;;;;5054737;28;20043;-72
2024/01/27 09:29:59;;;;;;;10.43;0.65;;;6.80;99.90;;;;;;5057656;28;20068;-73
2024/01/27 09:32:25;;;;;;;0.77;0.70;;;6.90;99.90;;;;;;5066461;28;20512;-74
2024/01/27 09:34:53;;;;;;;7.13;1.45;;;6.90;99.90;;;;;;5054515;28;20119;-74
2024/01/27 09:37:19;;;;;;;4.72;1.30;;;7.10;99.90;;;;;;5055152;28;20097;-74
2024/01/27 09:39:44;;;;;;;3.42;0.80;;;7.20;99.90;;;;;;5050292;28;20491;-73
2024/01/27 09:42:13;;;;;;;6.78;1.08;;;7.30;99.90;;;;;;5060700;28;20162;-74
2024/01/27 09:44:41;;;;;;;8.98;1.60;;;7.30;99.90;;;;;;5049144;28;20244;-73
2024/01/27 09:47:07;;;;;;;5.63;1.13;;;7.40;99.90;;;;;;5065766;28;20063;-73
2024/01/27 09:49:34;;;;;;;6.57;1.42;;;7.50;99.90;;;;;;5050770;28;20060;-74
2024/01/27 09:51:59;;;;;;;6.65;1.10;;;7.50;99.90;;;;;;5065273;28;20549;-74
2024/01/27 09:54:25;;;;;;;5.50;1.48;;;7.60;99.90;;;;;;5053729;28;20032;-72
2024/01/27 09:56:52;;;;;;;10.43;1.45;;;7.60;99.90;;;;;;5063290;28;20028;-74
2024/01/27 09:59:18;;;;;;;2.45;0.75;;;7.60;99.90;;;;;;5049916;28;20041;-73
2024/01/27 10:01:45;;;;;;;6.38;0.63;;;7.70;99.90;;;;;;5064417;28;20066;-73
2024/01/27 10:04:11;;;;;;;9.98;1.23;;;7.70;99.90;;;;;;5051798;28;20031;-73
2024/01/27 10:06:40;;;;;;;12.63;1.50;;;7.80;99.90;;;;;;5032601;28;20048;-73
2024/01/27 10:09:07;;;;;;;8.98;1.98;;;7.80;99.90;;;;;;5042341;28;20032;-72
2024/01/27 10:11:36;;;;;;;17.50;3.78;;;7.80;99.90;;;;;;5064587;28;20128;-74
2024/01/27 10:14:02;;;;;;;4.70;1.50;;;7.90;99.90;;;;;;5053626;28;20016;-73
2024/01/27 10:16:28;;;;;;;0.82;0.50;;;8.00;99.90;;;;;;5057567;28;20039;-72
2024/01/27 10:19:02;;;;;;;4.03;0.70;;;8.00;99.90;;;;;;5064211;28;21116;-72
2024/01/27 10:21:28;;;;;;;3.85;0.55;;;8.10;99.90;;;;;;5058025;28;20036;-72
2024/01/27 10:23:53;;;;;;;3.70;1.05;;;8.10;99.90;;;;;;5057389;28;20035;-73
2024/01/27 10:26:20;;;;;;;9.40;1.42;;;8.20;99.90;;;;;;5047595;28;20032;-73
2024/01/27 10:29:01;;;;;;;5.85;0.95;;;8.20;99.90;;;;;;5059453;28;20465;-75
2024/01/27 10:31:28;;;;;;;5.85;0.98;;;8.20;99.90;;;;;;5047025;28;20033;-73
2024/01/27 10:33:56;;;;;;;7.53;0.70;;;8.20;99.90;;;;;;5062243;28;20032;-73
2024/01/27 10:36:23;;;;;;;2.72;0.52;;;8.30;99.90;;;;;;5045183;28;20214;-73
2024/01/27 10:38:49;;;;;;;4.90;2.47;;;8.40;99.90;;;;;;5063020;28;20020;-73
2024/01/27 10:41:27;;;;;;;5.78;1.00;;;8.40;99.90;;;;;;5050365;28;20085;-72
2024/01/27 10:43:53;;;;;;;6.18;1.38;;;8.30;99.90;;;;;;5059444;28;20039;-73
2024/01/27 10:46:21;;;;;;;4.03;1.02;;;8.40;99.90;;;;;;5051490;28;20071;-73
2024/01/27 10:48:52;;;;;;;6.25;0.85;;;8.40;99.90;;;;;;5064961;28;20081;-73
2024/01/27 10:51:29;;;;;;;4.22;0.93;;;8.40;99.90;;;;;;5047245;28;20032;-74
2024/01/27 10:54:01;;;;;;;6.90;1.05;;;8.40;99.90;;;;;;5062690;28;20028;-73
2024/01/27 10:56:29;;;;;;;3.80;1.50;;;8.50;99.90;;;;;;5046140;28;20372;-73
2024/01/27 10:58:58;;;;;;;2.78;0.85;;;8.50;99.90;;;;;;5062572;28;21202;-72
2024/01/27 11:01:24;;;;;;;3.50;1.40;;;8.50;99.90;;;;;;5053883;28;20032;-73
2024/01/27 11:03:54;;;;;;;9.10;2.35;;;8.60;99.90;;;;;;5057253;28;20101;-73
2024/01/27 11:06:22;;;;;;;12.88;1.55;;;8.60;99.90;;;;;;5050299;28;20037;-72
2024/01/27 11:08:49;;;;;;;10.90;1.95;;;8.70;99.90;;;;;;5062037;28;20032;-74
2024/01/27 11:11:15;;;;;;;15.73;1.92;;;8.70;99.90;;;;;;5044465;28;20028;-72
2024/01/27 11:13:41;;;;;;;5.93;1.13;;;8.70;99.90;;;;;;5064273;28;20021;-73
2024/01/27 11:16:17;;;;;;;8.25;1.17;;;8.80;99.90;;;;;;5044706;28;20403;-72
2024/01/27 11:18:43;;;;;;;9.20;1.60;;;8.80;99.90;;;;;;5063593;28;20689;-73
2024/01/27 11:21:14;;;;;;;10.00;1.50;;;8.80;99.90;;;;;;5049086;28;20082;-73
2024/01/27 11:23:40;;;;;;;15.00;1.90;;;8.80;99.90;;;;;;5058542;28;21100;-72
2024/01/27 11:26:07;;;;;;;5.68;1.63;;;8.90;99.90;;;;;;5062449;28;20028;-73
2024/01/27 11:28:33;;;;;;;11.32;2.45;;;8.90;99.90;;;;;;5047304;28;20484;-72
2024/01/27 11:31:03;;;;;;;9.10;1.65;;;8.90;99.90;;;;;;5057748;28;20044;-73
2024/01/27 11:33:29;;;;;;;5.45;1.23;;;8.80;99.90;;;;;;5050292;28;20033;-72
2024/01/27 11:36:04;;;;;;;15.68;1.92;;;8.80;99.90;;;;;;5061167;28;20031;-72
2024/01/27 11:38:31;;;;;;;7.68;1.92;;;8.90;99.90;;;;;;5047555;28;20024;-71
2024/01/27 11:40:56;;;;;;;12.15;2.85;;;8.90;99.90;;;;;;5056871;28;20151;-73
2024/01/27 11:43:22;;;;;;;7.90;2.00;;;9.00;99.90;;;;;;5044076;28;20037;-73
2024/01/27 11:45:56;;;;;;;13.00;2.28;;;9.00;99.90;;;;;;5063554;28;20342;-74
2024/01/27 11:48:22;;;;;;;9.80;1.63;;;9.10;99.90;;;;;;5051925;28;20139;-74
2024/01/27 11:50:48;;;;;;;17.42;2.42;;;9.20;99.90;;;;;;5056585;28;20457;-73
2024/01/27 11:53:13;;;;;;;10.65;1.48;;;9.40;99.90;;;;;;5047760;28;20054;-73
2024/01/27 11:55:39;;;;;;;9.68;0.75;;;9.40;99.90;;;;;;5059393;28;20399;-74
2024/01/27 11:58:05;;;;;;;3.22;1.20;;;9.50;99.90;;;;;;5042755;28;20494;-72
2024/01/27 12:00:31;;;;;;;2.05;1.23;;;9.60;99.90;;;;;;5064957;28;20037;-72
2024/01/27 12:02:56;;;;;;;8.52;1.38;;;9.60;99.90;;;;;;5045183;28;20550;-72
2024/01/27 12:05:22;;;;;;;3.45;1.52;;;9.70;99.90;;;;;;5062143;28;21484;-73
2024/01/27 12:07:48;;;;;;;10.40;1.30;;;9.80;99.90;;;;;;5051870;28;20523;-72
2024/01/27 12:10:14;;;;;;;9.25;1.52;;;9.70;99.90;;;;;;5060921;28;20565;-73
2024/01/27 12:12:40;;;;;;;3.50;0.95;;;9.70;99.90;;;;;;5065275;28;20042;-73
2024/01/27 12:15:06;;;;;;;12.48;1.13;;;9.70;99.90;;;;;;5055017;28;20036;-74
2024/01/27 12:17:32;;;;;;;3.88;1.20;;;9.70;99.90;;;;;;5061678;28;20622;-73
2024/01/27 12:19:57;;;;;;;10.05;1.30;;;9.70;99.90;;;;;;5056715;28;20097;-73
2024/01/27 12:22:28;;;;;;;7.53;0.80;;;9.60;99.90;;;;;;5067697;28;20395;-73
2024/01/27 12:25:13;;;;;;;11.10;0.82;;;9.50;99.90;;;;;;5048210;28;20119;-73
2024/01/27 12:27:40;;;;;;;7.03;1.30;;;9.60;99.90;;;;;;5067394;28;20028;-72
2024/01/27 12:30:07;;;;;;;7.10;1.20;;;9.40;99.90;;;;;;5048264;28;20025;-73
2024/01/27 12:32:32;;;;;;;4.75;1.35;;;9.40;99.90;;;;;;5070570;28;20020;-74
2024/01/27 12:35:04;;;;;;;7.20;1.45;;;9.40;99.90;;;;;;5054084;28;20365;-73
2024/01/27 12:37:29;;;;;;;11.00;1.25;;;9.30;99.90;;;;;;5061382;28;20029;-72
2024/01/27 12:39:55;;;;;;;12.30;1.65;;;9.30;99.90;;;;;;5051662;28;20507;-72
2024/01/27 12:42:20;;;;;;;12.98;3.83;;;9.40;99.90;;;;;;5064789;28;20047;-73
2024/01/27 12:44:46;;;;;;;22.95;7.05;;;9.30;99.90;;;;;;5053160;28;20414;-72
2024/01/27 12:47:13;;;;;;;6.53;1.48;;;9.40;99.90;;;;;;5070347;28;20700;-71
2024/01/27 12:49:40;;;;;;;9.25;1.15;;;9.50;99.90;;;;;;5053727;28;20778;-72